Terminal Aerodrome Forecast
Issued by NWS Mt. Holly, NJ

Home | Current Version | Previous Version | Text Only | Print | Product List | Glossary On
Versions: 1 2 3 4 5 6 7 8 9 10 11 12 13 14 15 16 17 18 19 20 21 22 23 24 25 26 27 28 29 30 31 32 33 34 35 36 37 38 39 40 41 42 43 44 45 46 47 48 49 50
000
FTAK31 PANC 181356 AAA
TAFABE
TAF AMD
PABE 181356Z 1814/1912 05007KT P6SM BKN150
     FM190000 06007KT P6SM VCSH BKN050
     FM190300 05010KT 2SM -SHSN BKN020
     FM190600 03008KT P6SM SCT045 BKN090
     FM190800 03010KT P6SM SKC=

USA.gov is the U.S. government's official web portal to all federal, state and local government web resources and services.